Time;durP1;ratioP1;P1;durP2;ratioP2;P2;SDS_P1;SDS_P2;PMS_P1;PMS_P2;Temp;Humidity;BMP_temperature;BMP_pressure;BME280_temperature;BME280_humidity;BME280_pressure;Samples;Min_cycle;Max_cycle;Signal;HPM_P1;HPM_P2
2022/05/04 00:01:22;;;;;;;11.32;10.27;;;11.30;99.90;;;;;;4992135;28;20229;-73
2022/05/04 00:03:48;;;;;;;11.52;10.43;;;11.30;99.90;;;;;;4974573;28;20592;-74
2022/05/04 00:06:15;;;;;;;11.95;9.50;;;11.30;99.90;;;;;;4974144;28;20236;-73
2022/05/04 00:08:42;;;;;;;13.20;9.95;;;11.40;99.90;;;;;;4974260;28;20640;-73
2022/05/04 00:11:09;;;;;;;10.98;9.98;;;11.30;99.90;;;;;;4975294;28;20244;-75
2022/05/04 00:13:38;;;;;;;11.15;9.88;;;11.30;99.90;;;;;;4975468;28;20216;-74
2022/05/04 00:16:06;;;;;;;11.65;10.10;;;11.30;99.90;;;;;;4974684;28;20239;-74
2022/05/04 00:18:33;;;;;;;12.45;10.23;;;11.20;99.90;;;;;;4976750;28;20574;-74
2022/05/04 00:21:00;;;;;;;11.30;10.10;;;11.10;99.90;;;;;;4976237;28;20317;-74
2022/05/04 00:23:27;;;;;;;13.38;10.50;;;10.90;99.90;;;;;;4976622;28;20296;-74
2022/05/04 00:25:54;;;;;;;11.85;10.75;;;10.80;99.90;;;;;;4974590;28;20307;-73
2022/05/04 00:28:21;;;;;;;11.68;10.55;;;10.80;99.90;;;;;;4975267;28;20215;-74
2022/05/04 00:30:49;;;;;;;13.10;11.05;;;10.70;99.90;;;;;;4974842;28;20260;-74
2022/05/04 00:33:16;;;;;;;11.75;10.63;;;10.60;99.90;;;;;;4975465;28;20300;-75
2022/05/04 00:35:43;;;;;;;12.00;10.90;;;10.60;99.90;;;;;;4974491;28;20205;-75
2022/05/04 00:38:10;;;;;;;12.10;10.90;;;10.50;99.90;;;;;;4974013;28;20577;-75
2022/05/04 00:40:36;;;;;;;11.80;10.63;;;10.40;99.90;;;;;;4973344;28;20260;-75
2022/05/04 00:43:03;;;;;;;12.13;10.63;;;10.40;99.90;;;;;;4975927;28;20209;-74
2022/05/04 00:45:31;;;;;;;11.52;10.32;;;10.30;99.90;;;;;;4977462;28;20235;-75
2022/05/04 00:47:59;;;;;;;11.75;10.55;;;10.30;99.90;;;;;;4992680;28;20205;-73
2022/05/04 00:50:26;;;;;;;11.88;10.32;;;10.30;99.90;;;;;;4991114;28;20263;-76
2022/05/04 00:52:53;;;;;;;11.27;10.18;;;10.30;99.90;;;;;;4978444;28;20213;-73
2022/05/04 00:55:21;;;;;;;11.02;9.93;;;10.30;99.90;;;;;;4978228;28;20216;-75
2022/05/04 01:00:33;;;;;;;11.60;10.50;;;10.30;99.90;;;;;;4978040;28;20251;-74
2022/05/04 01:03:02;;;;;;;11.40;10.25;;;10.20;99.90;;;;;;4977732;28;20603;-75
2022/05/04 01:05:29;;;;;;;10.30;9.30;;;10.20;99.90;;;;;;4977743;28;20233;-75
2022/05/04 01:07:55;;;;;;;10.80;9.77;;;10.10;99.90;;;;;;4977377;28;20327;-75
2022/05/04 01:10:22;;;;;;;11.57;10.38;;;10.10;99.90;;;;;;4977366;28;20233;-75
2022/05/04 01:12:50;;;;;;;10.48;9.48;;;10.10;99.90;;;;;;4977537;28;20665;-75
2022/05/04 01:15:19;;;;;;;12.43;10.63;;;10.00;99.90;;;;;;4977629;28;20202;-75
2022/05/04 01:17:47;;;;;;;11.90;10.48;;;10.00;99.90;;;;;;4977923;28;20631;-76
2022/05/04 01:20:16;;;;;;;12.18;10.98;;;10.00;99.90;;;;;;4977776;28;20229;-75
2022/05/04 01:22:44;;;;;;;10.70;9.80;;;10.00;99.90;;;;;;4978400;28;20587;-75
2022/05/04 01:25:12;;;;;;;11.52;10.32;;;10.00;99.90;;;;;;4978600;28;20236;-74
2022/05/04 01:27:39;;;;;;;11.73;10.57;;;10.00;99.90;;;;;;4977129;28;20216;-74
2022/05/04 01:30:07;;;;;;;11.93;10.75;;;10.00;99.90;;;;;;4976677;28;20236;-75
2022/05/04 01:32:34;;;;;;;11.82;10.60;;;10.00;99.90;;;;;;4982705;28;20272;-73
2022/05/04 01:35:01;;;;;;;11.55;10.38;;;10.00;99.90;;;;;;4976665;28;20215;-74
2022/05/04 01:37:28;;;;;;;12.15;10.90;;;10.00;99.90;;;;;;4976737;28;20362;-75
2022/05/04 01:39:56;;;;;;;11.07;9.98;;;10.00;99.90;;;;;;4976446;28;20212;-75
2022/05/04 01:42:24;;;;;;;11.32;10.20;;;10.00;99.90;;;;;;4976279;28;20231;-74
2022/05/04 01:44:51;;;;;;;14.00;10.77;;;10.10;99.90;;;;;;4976103;28;20216;-74
2022/05/04 01:47:18;;;;;;;10.13;9.15;;;10.10;99.90;;;;;;4976454;28;20213;-74
2022/05/04 01:49:45;;;;;;;12.60;11.35;;;10.10;99.90;;;;;;4976894;28;20212;-75
2022/05/04 01:52:12;;;;;;;12.70;11.45;;;10.10;99.90;;;;;;4977429;28;20332;-74
2022/05/04 01:54:39;;;;;;;12.68;11.40;;;10.10;99.90;;;;;;4975947;28;20578;-74
2022/05/04 01:57:08;;;;;;;11.95;10.85;;;10.00;99.90;;;;;;4975627;28;20321;-74
2022/05/04 01:59:35;;;;;;;12.05;10.75;;;10.00;99.90;;;;;;4975632;28;20209;-74
2022/05/04 02:02:01;;;;;;;12.93;11.63;;;10.00;99.90;;;;;;4977033;28;20654;-75
2022/05/04 02:04:28;;;;;;;12.40;11.20;;;10.00;99.90;;;;;;4977883;28;20229;-75
2022/05/04 02:06:55;;;;;;;12.73;11.40;;;10.00;99.90;;;;;;4976116;28;20283;-75
2022/05/04 02:09:23;;;;;;;12.65;11.45;;;10.00;99.90;;;;;;4975886;28;20209;-74
2022/05/04 02:11:50;;;;;;;12.02;10.93;;;10.00;99.90;;;;;;4976580;28;20598;-74
2022/05/04 02:14:19;;;;;;;12.30;11.10;;;9.90;99.90;;;;;;4976944;28;20213;-75
2022/05/04 02:16:46;;;;;;;11.60;10.18;;;9.90;99.90;;;;;;4978157;28;20579;-73
2022/05/04 02:19:13;;;;;;;11.98;10.85;;;9.90;99.90;;;;;;4979839;28;20241;-74
2022/05/04 02:21:40;;;;;;;13.55;11.55;;;9.90;99.90;;;;;;4981438;28;20232;-74
2022/05/04 02:24:08;;;;;;;13.70;12.18;;;9.90;99.90;;;;;;4981126;28;20599;-74
2022/05/04 02:26:35;;;;;;;11.93;10.73;;;9.90;99.90;;;;;;4978525;28;20264;-74
2022/05/04 02:29:02;;;;;;;12.10;10.90;;;9.90;99.90;;;;;;4979232;28;20213;-74
2022/05/04 02:31:30;;;;;;;12.43;11.20;;;9.90;99.90;;;;;;4977621;28;20255;-74
2022/05/04 02:33:57;;;;;;;12.50;11.30;;;9.80;99.90;;;;;;4976448;28;20209;-75
2022/05/04 02:39:07;;;;;;;11.75;10.57;;;9.70;99.90;;;;;;4964995;28;20653;-75
2022/05/04 02:41:34;;;;;;;11.90;10.77;;;9.70;99.90;;;;;;4975295;28;20229;-74
2022/05/04 02:44:02;;;;;;;11.98;10.88;;;9.70;99.90;;;;;;4975695;28;20205;-74
2022/05/04 02:46:31;;;;;;;14.75;12.23;;;9.70;99.90;;;;;;4975650;28;20707;-74
2022/05/04 02:48:59;;;;;;;15.90;12.25;;;9.70;99.90;;;;;;4975891;28;20209;-74
2022/05/04 02:51:26;;;;;;;12.90;11.68;;;9.60;99.90;;;;;;4975561;28;20273;-75
2022/05/04 02:53:53;;;;;;;14.43;12.93;;;9.60;99.90;;;;;;4976288;28;20219;-75
2022/05/04 02:56:20;;;;;;;13.00;11.52;;;9.50;99.90;;;;;;4976232;28;20231;-75
2022/05/04 02:58:51;;;;;;;12.73;11.52;;;9.50;99.90;;;;;;4975991;28;20206;-74
2022/05/04 03:04:06;;;;;;;13.25;11.43;;;9.40;99.90;;;;;;4976145;28;20200;-74
2022/05/04 03:06:34;;;;;;;12.07;10.90;;;9.40;99.90;;;;;;4975670;28;20727;-75
2022/05/04 03:09:01;;;;;;;12.98;11.52;;;9.40;99.90;;;;;;4975988;28;20632;-75
2022/05/04 03:14:13;;;;;;;12.02;10.80;;;9.50;99.90;;;;;;4976745;28;20751;-74
2022/05/04 03:16:40;;;;;;;13.00;11.50;;;9.70;99.90;;;;;;4977299;28;20308;-74
2022/05/04 03:19:08;;;;;;;12.30;11.10;;;9.70;99.90;;;;;;4976161;28;20209;-74
2022/05/04 03:21:35;;;;;;;12.60;11.10;;;9.70;99.90;;;;;;4977122;28;20229;-74
2022/05/04 03:24:03;;;;;;;12.07;10.90;;;9.70;99.90;;;;;;4976543;28;20699;-76
2022/05/04 03:26:30;;;;;;;10.57;9.68;;;9.70;99.90;;;;;;4977264;28;20225;-75
2022/05/04 03:28:56;;;;;;;11.80;10.45;;;9.80;99.90;;;;;;4982110;28;20209;-75
2022/05/04 03:31:23;;;;;;;12.93;11.45;;;9.80;99.90;;;;;;4982998;28;20267;-74
2022/05/04 03:33:51;;;;;;;12.93;11.68;;;9.90;99.90;;;;;;4985850;28;20220;-74
2022/05/04 03:36:19;;;;;;;12.07;10.88;;;9.90;99.90;;;;;;4985206;28;20268;-75
2022/05/04 03:38:46;;;;;;;12.77;11.55;;;10.00;99.90;;;;;;4977902;28;20209;-74
2022/05/04 03:41:13;;;;;;;12.13;10.93;;;10.00;99.90;;;;;;4975722;28;20233;-74
2022/05/04 03:43:40;;;;;;;10.38;9.38;;;10.00;99.90;;;;;;4975274;28;20239;-75
2022/05/04 03:46:13;;;;;;;10.77;9.77;;;10.00;99.90;;;;;;4987361;28;20231;-76
2022/05/04 03:48:40;;;;;;;11.52;10.35;;;10.00;99.90;;;;;;4979743;28;20201;-75
2022/05/04 03:51:07;;;;;;;10.10;9.10;;;9.90;99.90;;;;;;4994195;28;20233;-75
2022/05/04 03:53:36;;;;;;;10.32;9.43;;;9.90;99.90;;;;;;4990069;28;20842;-75
2022/05/04 03:56:03;;;;;;;12.32;9.57;;;10.00;99.90;;;;;;4985870;28;20213;-75
2022/05/04 03:58:29;;;;;;;10.60;9.50;;;10.00;99.90;;;;;;4978463;28;20304;-75
2022/05/04 04:00:56;;;;;;;10.82;9.82;;;10.00;99.90;;;;;;4974220;28;20245;-75
2022/05/04 04:03:23;;;;;;;11.25;9.98;;;10.00;99.90;;;;;;4975902;28;20209;-75
2022/05/04 04:05:50;;;;;;;11.52;10.43;;;10.00;99.90;;;;;;4993674;28;20215;-75
2022/05/04 04:08:17;;;;;;;11.57;10.05;;;10.10;99.90;;;;;;4991745;28;20208;-76
2022/05/04 04:10:45;;;;;;;11.10;10.00;;;10.10;99.90;;;;;;4980502;28;20275;-76
2022/05/04 04:13:12;;;;;;;11.73;10.63;;;10.10;99.90;;;;;;4994205;28;20219;-74
2022/05/04 04:15:39;;;;;;;11.15;10.05;;;10.20;99.90;;;;;;4992301;28;20208;-75
2022/05/04 04:18:06;;;;;;;10.50;9.50;;;10.20;99.90;;;;;;4977406;28;20585;-74
2022/05/04 04:23:18;;;;;;;11.95;9.20;;;10.20;99.90;;;;;;5014637;28;20203;-74
2022/05/04 04:25:46;;;;;;;11.13;10.05;;;10.20;99.90;;;;;;5014453;28;20212;-74
2022/05/04 04:28:13;;;;;;;11.30;10.10;;;10.30;99.90;;;;;;5015081;28;20219;-75
2022/05/04 04:30:40;;;;;;;11.25;10.15;;;10.20;99.90;;;;;;5011031;28;20217;-76
2022/05/04 04:33:07;;;;;;;10.70;9.63;;;10.30;99.90;;;;;;4994959;28;20270;-75
2022/05/04 04:35:35;;;;;;;11.40;10.30;;;10.30;99.90;;;;;;5005544;28;20201;-73
2022/05/04 04:38:02;;;;;;;11.48;10.27;;;10.40;99.90;;;;;;5011498;28;20219;-76
2022/05/04 04:40:29;;;;;;;11.27;10.18;;;10.70;99.90;;;;;;5002946;28;20316;-76
2022/05/04 04:42:57;;;;;;;10.25;9.20;;;11.10;99.90;;;;;;4998062;28;20216;-76
2022/05/04 04:45:24;;;;;;;11.18;7.85;;;11.50;99.90;;;;;;4998848;28;20244;-75
2022/05/04 04:47:51;;;;;;;9.52;8.60;;;11.80;99.90;;;;;;4996413;28;20318;-75
2022/05/04 04:50:18;;;;;;;8.25;7.55;;;12.10;99.90;;;;;;4994536;28;20250;-75
2022/05/04 04:52:45;;;;;;;8.80;7.63;;;12.50;97.70;;;;;;4995454;28;20275;-75
2022/05/04 04:55:12;;;;;;;8.13;7.32;;;12.70;91.50;;;;;;4995303;28;20508;-75
2022/05/04 04:57:39;;;;;;;9.07;7.65;;;12.80;85.60;;;;;;4995406;28;20205;-76
2022/05/04 05:00:08;;;;;;;7.97;7.22;;;13.00;82.00;;;;;;4994405;28;20310;-77
2022/05/04 05:02:35;;;;;;;7.88;7.18;;;13.30;80.40;;;;;;4995682;28;20292;-75
2022/05/04 05:05:03;;;;;;;8.68;7.88;;;13.20;76.20;;;;;;4995757;28;20216;-75
2022/05/04 05:07:30;;;;;;;8.90;8.10;;;13.00;75.90;;;;;;4996088;28;20229;-76
2022/05/04 05:10:00;;;;;;;10.48;7.90;;;12.80;76.50;;;;;;4994842;28;20280;-75
2022/05/04 05:12:27;;;;;;;9.60;8.60;;;12.50;78.50;;;;;;4995303;28;20676;-77
2022/05/04 05:17:40;;;;;;;8.90;8.10;;;12.10;82.40;;;;;;4995513;28;20276;-76
2022/05/04 05:20:08;;;;;;;8.88;7.97;;;12.00;84.70;;;;;;4995671;28;20213;-76
2022/05/04 05:22:35;;;;;;;9.43;7.90;;;11.90;86.70;;;;;;4995765;28;20760;-76
2022/05/04 05:25:02;;;;;;;10.10;9.10;;;11.70;89.10;;;;;;4995612;28;20209;-76
2022/05/04 05:27:30;;;;;;;9.05;8.15;;;11.60;90.20;;;;;;4996360;28;20239;-76
2022/05/04 05:29:57;;;;;;;8.38;7.68;;;11.60;90.80;;;;;;4998796;28;20213;-75
2022/05/04 05:32:24;;;;;;;11.70;8.70;;;11.60;91.60;;;;;;4999725;28;20768;-76
2022/05/04 05:34:53;;;;;;;9.30;8.40;;;11.60;92.00;;;;;;5000666;28;20209;-77
2022/05/04 05:37:20;;;;;;;9.48;8.57;;;11.70;92.30;;;;;;4999376;28;20208;-77
2022/05/04 05:39:48;;;;;;;9.68;8.68;;;11.70;92.50;;;;;;5000137;28;20208;-76
2022/05/04 05:42:15;;;;;;;9.23;8.43;;;11.70;92.30;;;;;;5000472;28;20596;-75
2022/05/04 05:44:42;;;;;;;10.10;9.10;;;12.00;92.40;;;;;;5006996;28;20203;-76
2022/05/04 05:47:09;;;;;;;9.23;8.32;;;12.20;92.30;;;;;;5003549;28;20225;-75
2022/05/04 05:49:36;;;;;;;7.97;7.28;;;12.80;92.40;;;;;;5002935;28;20240;-76
2022/05/04 05:52:08;;;;;;;8.35;7.47;;;13.60;89.40;;;;;;4999474;28;20264;-76
2022/05/04 05:54:35;;;;;;;9.83;7.33;;;14.20;78.80;;;;;;5002772;28;20196;-76
2022/05/04 05:57:02;;;;;;;8.80;6.80;;;14.60;71.80;;;;;;5004379;28;20460;-75
2022/05/04 05:59:29;;;;;;;7.13;6.40;;;15.30;68.80;;;;;;5000863;28;20522;-76
2022/05/04 06:01:56;;;;;;;7.43;6.70;;;16.00;63.60;;;;;;4999352;28;20988;-75
2022/05/04 06:04:23;;;;;;;7.73;6.50;;;16.70;59.60;;;;;;4999056;28;20818;-76
2022/05/04 06:06:49;;;;;;;7.20;6.60;;;17.20;56.00;;;;;;4997833;28;20493;-75
2022/05/04 06:09:18;;;;;;;6.00;5.50;;;17.50;52.80;;;;;;4996303;28;20952;-76
2022/05/04 06:11:45;;;;;;;7.10;6.40;;;17.50;51.50;;;;;;4997143;28;20459;-75
2022/05/04 06:14:12;;;;;;;7.63;6.17;;;18.00;51.10;;;;;;5000192;28;20492;-76
2022/05/04 06:16:40;;;;;;;7.03;6.33;;;18.20;48.50;;;;;;4999902;28;20938;-77
2022/05/04 06:19:07;;;;;;;5.60;5.13;;;18.20;49.30;;;;;;4999116;28;20450;-76
2022/05/04 06:21:34;;;;;;;10.20;5.57;;;18.40;48.20;;;;;;5004110;28;21001;-76
2022/05/04 06:24:01;;;;;;;7.17;6.03;;;18.60;47.60;;;;;;5004337;28;20474;-76
2022/05/04 06:26:30;;;;;;;7.43;6.10;;;18.70;47.60;;;;;;4998640;28;20447;-75
2022/05/04 06:28:57;;;;;;;7.43;6.33;;;18.70;45.50;;;;;;4999391;28;20478;-76
2022/05/04 06:34:08;;;;;;;6.60;5.90;;;18.00;47.00;;;;;;4999575;28;20490;-77
2022/05/04 06:36:35;;;;;;;7.23;6.63;;;17.80;47.70;;;;;;5000058;28;20466;-77
2022/05/04 06:39:02;;;;;;;8.10;7.33;;;17.70;48.10;;;;;;4998981;28;20455;-76
2022/05/04 06:41:31;;;;;;;8.27;7.47;;;17.30;48.80;;;;;;4998906;28;20533;-76
2022/05/04 06:43:58;;;;;;;8.20;7.33;;;17.00;50.30;;;;;;4998312;28;20537;-77
2022/05/04 06:46:24;;;;;;;9.07;8.20;;;16.60;51.80;;;;;;4999157;28;20463;-77
2022/05/04 06:48:51;;;;;;;8.47;7.67;;;16.40;53.50;;;;;;4997452;28;20431;-76
2022/05/04 06:51:18;;;;;;;9.13;8.33;;;16.40;53.60;;;;;;4996097;28;20466;-76
2022/05/04 06:53:45;;;;;;;9.87;8.50;;;16.30;53.60;;;;;;4996635;28;20426;-76
2022/05/04 06:56:12;;;;;;;10.80;9.90;;;16.20;53.90;;;;;;4996821;28;20414;-76
2022/05/04 06:58:40;;;;;;;13.00;9.50;;;16.20;51.90;;;;;;4995253;28;20526;-75
2022/05/04 07:01:08;;;;;;;10.83;9.73;;;16.00;51.10;;;;;;4995108;28;20487;-76
2022/05/04 07:03:35;;;;;;;10.97;9.90;;;15.70;51.80;;;;;;4995292;28;20900;-76
2022/05/04 07:06:02;;;;;;;11.20;10.10;;;15.70;49.30;;;;;;4995393;28;20438;-75
2022/05/04 07:08:28;;;;;;;10.57;9.47;;;15.50;50.30;;;;;;4995185;28;20978;-76
2022/05/04 07:10:55;;;;;;;12.13;10.67;;;15.30;52.00;;;;;;4995095;28;20456;-76
2022/05/04 07:13:23;;;;;;;11.90;10.70;;;15.50;50.80;;;;;;4995768;28;20528;-75
2022/05/04 07:15:53;;;;;;;11.83;10.63;;;15.40;51.40;;;;;;4995502;28;20445;-76
2022/05/04 07:18:19;;;;;;;11.53;9.10;;;15.20;52.40;;;;;;4996598;28;20426;-75
2022/05/04 07:20:46;;;;;;;12.60;10.87;;;15.30;53.00;;;;;;5011810;28;20474;-75
2022/05/04 07:23:13;;;;;;;11.53;10.33;;;15.20;54.10;;;;;;5002504;28;20460;-75
2022/05/04 07:25:40;;;;;;;11.63;10.30;;;15.40;54.30;;;;;;5012816;28;20468;-76
2022/05/04 07:28:08;;;;;;;10.67;9.67;;;15.20;54.10;;;;;;5005019;28;20511;-76
2022/05/04 07:30:35;;;;;;;12.10;10.90;;;15.10;54.90;;;;;;5001309;28;20457;-75
2022/05/04 07:33:03;;;;;;;11.60;10.10;;;15.20;55.70;;;;;;5001462;28;20430;-76
2022/05/04 07:35:30;;;;;;;10.20;9.30;;;15.40;55.80;;;;;;5001572;28;20434;-75
2022/05/04 07:37:57;;;;;;;11.80;10.50;;;15.30;56.80;;;;;;5003115;28;20443;-76
2022/05/04 07:43:22;;;;;;;11.10;10.00;;;15.70;54.70;;;;;;4997698;28;20489;-76
2022/05/04 07:45:49;;;;;;;10.63;9.47;;;15.80;54.70;;;;;;4995832;28;20469;-76
2022/05/04 07:48:17;;;;;;;11.47;10.30;;;16.00;54.80;;;;;;4995606;28;20569;-77
2022/05/04 07:50:44;;;;;;;10.80;9.53;;;15.60;54.50;;;;;;4996288;28;20566;-75
2022/05/04 07:53:11;;;;;;;11.20;10.20;;;15.80;54.70;;;;;;5001357;28;20546;-77
2022/05/04 07:55:38;;;;;;;11.43;10.20;;;16.10;54.60;;;;;;5002898;28;20767;-76
2022/05/04 07:58:05;;;;;;;11.90;10.40;;;16.20;51.20;;;;;;4998141;28;20449;-76
2022/05/04 08:06:01;;;;;;;15.60;10.70;;;16.40;51.10;;;;;;4996479;28;21006;-76
2022/05/04 08:08:28;;;;;;;11.57;10.43;;;16.70;49.90;;;;;;4995848;28;20473;-76
2022/05/04 08:10:55;;;;;;;12.03;10.67;;;16.70;49.70;;;;;;4995768;28;20546;-77
2022/05/04 08:13:22;;;;;;;11.67;10.57;;;17.00;49.20;;;;;;4995902;28;20485;-76
2022/05/04 08:15:49;;;;;;;11.30;10.20;;;17.40;46.70;;;;;;4994897;28;20444;-76
2022/05/04 08:18:17;;;;;;;10.77;9.67;;;17.70;46.70;;;;;;4995063;28;21000;-76
2022/05/04 08:20:44;;;;;;;22.77;11.40;;;17.80;46.80;;;;;;4994798;28;20824;-76
2022/05/04 08:23:12;;;;;;;11.20;10.03;;;17.40;46.40;;;;;;4995237;28;20464;-77
2022/05/04 08:25:39;;;;;;;19.10;11.00;;;17.20;47.70;;;;;;4995923;28;20537;-76
2022/05/04 08:28:06;;;;;;;11.10;10.00;;;17.60;46.60;;;;;;4996023;28;20466;-76
2022/05/04 08:30:33;;;;;;;11.40;10.30;;;18.00;47.00;;;;;;4997148;28;20548;-76
2022/05/04 08:33:00;;;;;;;11.63;10.13;;;18.60;44.40;;;;;;5003314;28;20460;-76
2022/05/04 08:35:28;;;;;;;11.33;10.23;;;18.80;42.90;;;;;;5004106;28;20459;-77
2022/05/04 08:37:55;;;;;;;13.20;11.90;;;18.70;42.20;;;;;;5004916;28;20423;-76
2022/05/04 08:40:22;;;;;;;11.20;10.07;;;18.80;42.70;;;;;;5001615;28;20457;-76
2022/05/04 08:42:50;;;;;;;11.50;10.30;;;18.50;43.30;;;;;;4994773;28;20484;-76
2022/05/04 08:45:17;;;;;;;12.87;11.57;;;18.80;42.40;;;;;;4994744;28;20440;-77
2022/05/04 08:47:45;;;;;;;13.40;12.20;;;18.90;42.00;;;;;;4994351;28;20466;-76
2022/05/04 08:50:14;;;;;;;12.63;11.43;;;18.80;41.70;;;;;;4993365;28;20760;-76
2022/05/04 08:52:51;;;;;;;13.00;11.80;;;18.40;43.00;;;;;;4993447;28;20451;-76
2022/05/04 08:55:19;;;;;;;13.63;12.33;;;18.50;42.50;;;;;;4993546;28;20490;-76
2022/05/04 08:57:46;;;;;;;13.13;11.90;;;18.80;41.40;;;;;;4993663;28;20451;-77
2022/05/04 09:00:14;;;;;;;12.50;11.20;;;19.10;40.30;;;;;;4994840;28;20518;-76
2022/05/04 09:02:41;;;;;;;14.63;11.10;;;19.20;39.60;;;;;;4995064;28;20466;-77
2022/05/04 09:05:16;;;;;;;13.30;12.00;;;19.30;40.20;;;;;;5000335;28;20495;-75
2022/05/04 09:07:45;;;;;;;13.03;11.70;;;19.30;39.10;;;;;;5001676;28;20457;-75
2022/05/04 09:10:19;;;;;;;17.73;12.20;;;19.40;39.20;;;;;;5012136;28;20426;-75
2022/05/04 09:12:48;;;;;;;12.73;11.70;;;19.60;39.40;;;;;;5020387;28;20455;-76
2022/05/04 09:15:22;;;;;;;13.07;11.70;;;19.60;38.50;;;;;;5020094;28;20451;-76
2022/05/04 09:17:57;;;;;;;14.23;12.50;;;19.90;38.70;;;;;;5008368;28;20848;-76
2022/05/04 09:23:12;;;;;;;12.97;11.77;;;20.90;36.90;;;;;;4997434;28;20955;-76
2022/05/04 09:25:39;;;;;;;13.50;11.37;;;21.10;35.20;;;;;;4997763;28;20804;-75
2022/05/04 09:28:11;;;;;;;13.97;12.67;;;20.70;35.70;;;;;;4997457;28;20466;-76
2022/05/04 09:30:42;;;;;;;13.73;11.70;;;20.30;37.50;;;;;;4996667;28;20488;-75
2022/05/04 09:33:11;;;;;;;13.57;12.13;;;20.00;38.10;;;;;;4996296;28;21030;-76
2022/05/04 09:35:40;;;;;;;13.20;11.90;;;20.30;37.00;;;;;;4996344;28;20432;-76
2022/05/04 09:46:40;;;;;;;14.03;12.20;;;19.90;38.70;;;;;;4996762;28;20817;-76
2022/05/04 09:49:11;;;;;;;12.33;11.10;;;19.80;38.60;;;;;;4996868;28;20563;-76
2022/05/04 09:51:39;;;;;;;18.30;13.27;;;19.70;38.60;;;;;;4997891;28;20446;-76
2022/05/04 09:54:21;;;;;;;13.47;12.23;;;19.50;39.50;;;;;;4997614;28;20449;-76
2022/05/04 09:56:51;;;;;;;14.10;12.20;;;19.20;39.90;;;;;;4997331;28;20443;-77
2022/05/04 09:59:19;;;;;;;15.43;13.93;;;19.00;40.50;;;;;;4997748;28;20455;-76
2022/05/04 10:01:47;;;;;;;14.30;12.90;;;18.80;40.30;;;;;;4997912;28;20514;-76
2022/05/04 10:04:15;;;;;;;14.43;13.03;;;18.70;41.90;;;;;;4997392;28;20803;-75
2022/05/04 10:06:43;;;;;;;14.63;13.20;;;18.40;44.00;;;;;;4999384;28;20474;-75
2022/05/04 10:09:10;;;;;;;16.77;15.00;;;18.00;47.00;;;;;;5008204;28;20473;-75
2022/05/04 10:11:39;;;;;;;15.90;14.20;;;17.40;48.20;;;;;;5004744;28;20551;-76
2022/05/04 10:14:10;;;;;;;18.30;15.17;;;16.90;51.20;;;;;;5003483;28;20926;-76
2022/05/04 10:16:46;;;;;;;18.03;16.20;;;16.00;56.00;;;;;;5004108;28;20772;-75
2022/05/04 10:19:20;;;;;;;16.23;14.63;;;15.90;57.00;;;;;;5006960;28;20884;-76
2022/05/04 10:21:51;;;;;;;17.73;16.00;;;16.10;60.60;;;;;;5009070;28;20486;-76
2022/05/04 10:24:20;;;;;;;17.17;15.57;;;16.60;63.40;;;;;;5010582;28;20444;-75
2022/05/04 10:26:48;;;;;;;15.53;13.93;;;17.10;61.30;;;;;;5010280;28;20433;-75
2022/05/04 10:32:28;;;;;;;15.67;14.10;;;17.80;53.30;;;;;;5012923;28;20494;-75
2022/05/04 10:35:13;;;;;;;17.37;14.83;;;17.80;51.90;;;;;;5013745;28;20490;-75
2022/05/04 10:38:11;;;;;;;15.00;13.53;;;18.20;50.00;;;;;;5018591;28;20449;-75
2022/05/04 10:40:40;;;;;;;16.60;14.20;;;18.70;48.50;;;;;;5019006;28;20469;-75
2022/05/04 10:43:09;;;;;;;17.23;14.23;;;19.00;47.90;;;;;;5014464;28;20798;-76
2022/05/04 10:45:38;;;;;;;15.67;14.27;;;19.10;48.00;;;;;;5010969;28;20450;-76
2022/05/04 10:48:28;;;;;;;17.90;14.87;;;19.30;48.20;;;;;;5010328;28;20489;-75
2022/05/04 10:51:02;;;;;;;15.63;13.77;;;19.50;43.90;;;;;;5010220;28;20486;-75
2022/05/04 10:53:40;;;;;;;16.77;14.30;;;19.60;44.90;;;;;;5010190;28;20434;-75
2022/05/04 10:56:09;;;;;;;15.73;14.23;;;19.20;46.20;;;;;;5006937;28;20467;-75
2022/05/04 10:58:42;;;;;;;16.37;14.73;;;19.40;44.80;;;;;;5009901;28;20543;-75
2022/05/04 11:01:18;;;;;;;16.03;14.40;;;19.60;45.60;;;;;;5013357;28;20458;-75
2022/05/04 11:04:06;;;;;;;15.53;14.03;;;20.10;45.50;;;;;;5012798;28;20463;-74
2022/05/04 11:06:35;;;;;;;14.87;13.43;;;20.40;44.50;;;;;;5011716;28;20441;-75
2022/05/04 11:09:07;;;;;;;13.93;12.43;;;20.40;44.00;;;;;;5006962;28;20465;-75
2022/05/04 11:11:35;;;;;;;13.03;11.93;;;20.30;42.30;;;;;;4994762;28;20490;-75
2022/05/04 11:14:04;;;;;;;13.80;12.03;;;20.40;42.20;;;;;;4995341;28;20430;-75
2022/05/04 11:16:32;;;;;;;15.63;12.83;;;20.50;40.00;;;;;;4994394;28;20480;-74
2022/05/04 11:19:00;;;;;;;12.63;11.40;;;20.40;39.20;;;;;;4996006;28;20454;-76
2022/05/04 11:21:28;;;;;;;15.63;12.50;;;20.30;38.70;;;;;;4997090;28;20480;-74
2022/05/04 11:23:56;;;;;;;16.63;11.73;;;19.60;40.30;;;;;;4996942;28;20529;-75
2022/05/04 11:26:25;;;;;;;12.63;11.53;;;19.10;41.30;;;;;;4997933;28;20529;-75
2022/05/04 11:28:53;;;;;;;13.37;12.17;;;18.70;40.90;;;;;;4996748;28;20487;-74
2022/05/04 11:31:22;;;;;;;12.77;11.50;;;18.80;41.40;;;;;;4995610;28;20545;-75
2022/05/04 11:33:50;;;;;;;13.27;10.53;;;19.50;41.80;;;;;;4997680;28;20447;-75
2022/05/04 11:36:19;;;;;;;13.60;12.30;;;20.00;40.30;;;;;;4996256;28;20558;-76
2022/05/04 11:38:46;;;;;;;15.03;11.87;;;20.30;39.10;;;;;;4995910;28;20431;-73
2022/05/04 11:41:14;;;;;;;12.87;11.67;;;20.60;39.40;;;;;;4995344;28;20454;-75
2022/05/04 11:43:41;;;;;;;13.23;11.93;;;20.60;40.00;;;;;;4995513;28;20936;-75
2022/05/04 11:46:10;;;;;;;12.00;10.80;;;20.50;39.90;;;;;;4995820;28;20431;-74
2022/05/04 11:48:39;;;;;;;11.50;10.50;;;20.20;41.30;;;;;;4994831;28;20496;-74
2022/05/04 11:51:06;;;;;;;13.60;12.27;;;19.90;41.50;;;;;;4993726;28;20455;-74
2022/05/04 11:53:35;;;;;;;13.90;12.50;;;20.00;40.70;;;;;;4994283;28;20509;-74
2022/05/04 11:56:03;;;;;;;12.53;11.43;;;19.90;41.40;;;;;;4993901;28;20551;-75
2022/05/04 11:58:31;;;;;;;11.03;10.13;;;20.00;40.90;;;;;;4994286;28;20456;-74
2022/05/04 12:00:58;;;;;;;12.73;10.90;;;20.00;41.70;;;;;;4993522;28;20511;-74
2022/05/04 12:03:26;;;;;;;12.07;10.67;;;20.30;39.80;;;;;;4994626;28;20454;-75
2022/05/04 12:05:55;;;;;;;10.73;9.67;;;20.00;40.50;;;;;;4998360;28;20431;-75
2022/05/04 12:08:24;;;;;;;10.23;9.23;;;20.30;40.30;;;;;;4998702;28;20443;-75
2022/05/04 12:10:52;;;;;;;10.07;9.17;;;20.40;39.20;;;;;;4997906;28;20566;-75
2022/05/04 12:13:23;;;;;;;8.60;7.80;;;20.10;37.90;;;;;;4997192;28;20439;-75
2022/05/04 12:15:50;;;;;;;7.60;6.90;;;20.10;36.40;;;;;;4997590;28;20452;-74
2022/05/04 12:18:18;;;;;;;9.80;7.27;;;20.00;36.00;;;;;;5000323;28;20483;-74
2022/05/04 12:20:45;;;;;;;7.90;7.13;;;20.00;36.00;;;;;;5003659;28;20470;-74
2022/05/04 12:23:14;;;;;;;7.50;6.90;;;19.70;34.40;;;;;;5001843;28;20459;-75
2022/05/04 12:25:42;;;;;;;7.90;7.20;;;20.00;34.40;;;;;;4998812;28;20857;-75
2022/05/04 12:28:10;;;;;;;7.67;6.43;;;19.90;33.60;;;;;;4995549;28;20434;-75
2022/05/04 12:33:30;;;;;;;8.60;7.80;;;20.70;33.60;;;;;;4995971;28;20428;-74
2022/05/04 12:36:00;;;;;;;7.53;6.93;;;20.80;33.80;;;;;;4994980;28;20478;-75
2022/05/04 12:38:28;;;;;;;8.87;7.33;;;21.30;32.10;;;;;;4993972;28;20598;-75
2022/05/04 12:40:55;;;;;;;8.50;7.67;;;21.00;32.30;;;;;;4995777;28;20534;-75
2022/05/04 12:43:24;;;;;;;8.77;7.97;;;20.20;33.80;;;;;;4999978;28;20502;-75
2022/05/04 12:45:54;;;;;;;8.73;7.83;;;20.50;33.40;;;;;;5000007;28;20419;-75
2022/05/04 12:48:25;;;;;;;7.83;7.23;;;20.60;33.90;;;;;;4997453;28;20430;-76
2022/05/04 12:50:54;;;;;;;8.37;7.63;;;20.50;34.20;;;;;;4994329;28;20466;-76
2022/05/04 12:53:21;;;;;;;9.00;6.63;;;20.90;33.80;;;;;;4994239;28;20489;-75
2022/05/04 12:58:35;;;;;;;7.90;7.20;;;21.20;34.00;;;;;;4994016;28;20535;-75
2022/05/04 13:01:02;;;;;;;15.80;7.40;;;21.40;32.00;;;;;;4993444;28;20463;-76
2022/05/04 13:03:29;;;;;;;8.00;7.30;;;21.10;32.40;;;;;;4993786;28;20469;-75
2022/05/04 13:05:56;;;;;;;9.13;6.87;;;21.20;31.70;;;;;;4995133;28;20539;-75
2022/05/04 13:08:24;;;;;;;7.87;7.00;;;21.20;32.20;;;;;;4995193;28;20513;-75
2022/05/04 13:10:52;;;;;;;6.40;5.90;;;21.40;31.20;;;;;;4995580;28;20567;-75
2022/05/04 13:13:20;;;;;;;8.03;7.33;;;21.80;31.00;;;;;;4996124;28;20512;-76
2022/05/04 13:15:47;;;;;;;7.33;6.63;;;22.30;30.60;;;;;;4997155;28;20466;-76
2022/05/04 13:18:14;;;;;;;7.73;6.97;;;22.50;29.90;;;;;;5002943;28;20433;-76
2022/05/04 13:20:42;;;;;;;7.13;6.50;;;22.30;30.60;;;;;;4996469;28;21006;-75
2022/05/04 13:23:09;;;;;;;9.60;8.03;;;22.50;29.70;;;;;;4999973;28;20479;-77
2022/05/04 13:25:36;;;;;;;8.20;6.17;;;22.50;29.20;;;;;;5002341;28;20483;-76